Harelbeke, Belgium

10:07 AM CET on November 28, 2014 (GMT +0100)
Waregem-Bosstraat | Change Station
CLOSE
Current Station
Personal Weather Station
Location: Waregem, WS1080
Elevation: 100 ft
Nearby Weather Stations

Elev 100 ft 50.88 °N, 3.45 °E | Updated 7 minutes ago

Clear
Clear
51.1 °F
Feels Like 51.1 °F
N
0.7
Wind Variable Wind from NE
Gusts 1.6 mph

Today
High -- | Low -- °F
--% Chance of Precip.
Yesterday
High -- | Low -- °F
Precip. -- in
8:22 AM 4:46 PM
Waxing Crescent, 38% visible
Pressure 29.62 in
Visibility -9999.0 miles
Clouds
Dew Point 50 °F
Humidity 98%
Rainfall 0.00 in
Snow Depth Not available.
UV Not available.
Pollen Not available.
Air Quality Not available.
Flu Activity Not available.
METAR LFQQ 280900Z 09008KT CAVOK 10/08 Q1003 NOSIG

More Conditions Fewer Conditions

Pressure 29.62 in
Visibility -9999.0 miles
Clouds
Dew Point 50 °F
Humidity 98%
Rainfall 0.00 in
Snow Depth Not available.
UV Not available.
Pollen Not available.
Air Quality Not available.
Flu Activity Not available.
METAR LFQQ 280900Z 09008KT CAVOK 10/08 Q1003 NOSIG

More Conditions Fewer Conditions

10-Day Weather Forecast

Almanac

Astronomy

Nov. 28, 2014 Rise Set
Actual Time
Civil Twilight
Nautical Twilight
Astronomical Twilight
Moon
Length of Visible Light
Length of Day
Tomorrow will be .
, % of the Moon is Illuminated

Today's Extremes

Country Highs Country Lows

Community

WunderPhotos

Upload Photos

1,774,190 photos uploaded!

WunderBlogs® & News

Nearby

Air Quality

  Air Quality AQ Index Pollutant
Not available.

Snow Depth

Station Depth Elevation

Earthquake Activity

City Distance Mag. Time & Date
Minimum magnitude displayed is 2.5.

Coastal Water Temperatures

Place Temperature

Nearby Weather Stations